Time;durP1;ratioP1;P1;durP2;ratioP2;P2;SDS_P1;SDS_P2;PMS_P1;PMS_P2;Temp;Humidity;BMP_temperature;BMP_pressure;BME280_temperature;BME280_humidity;BME280_pressure;Samples;Min_cycle;Max_cycle;Signal;HPM_P1;HPM_P2
2021/07/24 00:02:25;;;;;;;15.80;14.20;;;25.60;54.10;;;;;;4952503;28;20499;-50
2021/07/24 00:04:50;;;;;;;15.20;13.70;;;25.50;54.60;;;;;;4954598;28;20601;-51
2021/07/24 00:07:16;;;;;;;18.67;14.30;;;25.30;55.10;;;;;;4953702;28;20206;-51
2021/07/24 00:09:41;;;;;;;16.43;14.33;;;25.40;54.90;;;;;;4954927;28;20199;-52
2021/07/24 00:12:07;;;;;;;17.13;13.57;;;25.50;54.70;;;;;;4953992;28;20192;-50
2021/07/24 00:14:33;;;;;;;17.23;14.87;;;25.40;54.60;;;;;;4954342;28;20207;-51
2021/07/24 00:16:58;;;;;;;18.30;14.27;;;25.50;54.50;;;;;;4953250;28;20519;-51
2021/07/24 00:19:24;;;;;;;14.87;13.37;;;25.50;54.40;;;;;;4954565;29;20203;-50
2021/07/24 00:21:51;;;;;;;16.10;14.60;;;25.50;54.30;;;;;;4935459;29;20272;-52
2021/07/24 00:24:16;;;;;;;15.23;13.63;;;25.50;54.20;;;;;;4935190;29;20429;-49
2021/07/24 00:26:42;;;;;;;15.40;13.90;;;25.60;54.20;;;;;;4934189;29;20235;-49
2021/07/24 00:29:08;;;;;;;15.70;14.10;;;25.50;54.00;;;;;;4933863;29;20236;-51
2021/07/24 00:31:35;;;;;;;15.43;13.83;;;25.50;53.90;;;;;;4934516;29;20785;-49
2021/07/24 00:34:00;;;;;;;14.20;12.80;;;25.40;53.90;;;;;;4935069;29;20440;-50
2021/07/24 00:36:26;;;;;;;15.63;13.00;;;25.40;54.10;;;;;;4934178;29;20499;-49
2021/07/24 00:38:52;;;;;;;16.70;14.03;;;25.40;54.10;;;;;;4935230;29;20216;-50
2021/07/24 00:41:30;;;;;;;14.83;13.33;;;25.40;54.10;;;;;;4934779;29;20232;-52
2021/07/24 00:43:59;;;;;;;14.30;12.93;;;25.30;54.60;;;;;;4934756;29;20200;-52
2021/07/24 00:46:25;;;;;;;13.67;12.37;;;25.10;55.20;;;;;;4949817;29;20780;-52
2021/07/24 00:48:52;;;;;;;15.17;13.17;;;25.10;55.00;;;;;;4953312;28;20550;-48
2021/07/24 00:51:31;;;;;;;14.50;13.00;;;25.10;54.80;;;;;;4953729;29;20924;-51
2021/07/24 00:53:57;;;;;;;14.87;12.43;;;25.20;54.60;;;;;;4952507;29;21581;-52
2021/07/24 00:56:24;;;;;;;14.87;13.37;;;25.20;54.60;;;;;;4953068;29;20432;-48
2021/07/24 00:58:50;;;;;;;17.90;14.00;;;25.20;54.40;;;;;;4954051;29;20251;-49
2021/07/24 01:01:16;;;;;;;16.27;14.13;;;25.20;54.50;;;;;;4953332;29;20435;-49
2021/07/24 01:03:41;;;;;;;15.43;13.93;;;25.20;54.40;;;;;;4953974;29;20196;-47
2021/07/24 01:06:07;;;;;;;15.80;14.10;;;25.20;54.40;;;;;;4952579;29;20676;-47
2021/07/24 01:08:35;;;;;;;15.30;13.73;;;25.20;54.30;;;;;;4953583;29;20645;-46
2021/07/24 01:11:00;;;;;;;16.20;13.33;;;25.20;54.20;;;;;;4953347;29;20611;-47
2021/07/24 01:13:26;;;;;;;18.23;13.77;;;25.10;54.20;;;;;;4953662;29;20531;-47
2021/07/24 01:15:53;;;;;;;14.83;13.10;;;25.00;54.50;;;;;;4952560;28;20219;-47
2021/07/24 01:18:19;;;;;;;16.20;12.50;;;24.90;54.70;;;;;;4953300;28;20287;-46
2021/07/24 01:20:46;;;;;;;13.90;12.50;;;24.90;55.00;;;;;;4942051;29;20449;-49
2021/07/24 01:23:13;;;;;;;15.47;12.90;;;24.80;55.30;;;;;;4934722;29;20459;-46
2021/07/24 01:25:51;;;;;;;15.40;13.80;;;24.60;55.70;;;;;;4933712;29;20446;-48
2021/07/24 01:28:29;;;;;;;16.23;12.87;;;24.50;56.20;;;;;;4934169;29;20570;-47
2021/07/24 01:30:55;;;;;;;15.00;13.30;;;24.50;56.20;;;;;;4933920;29;20479;-47
2021/07/24 01:33:20;;;;;;;13.80;12.40;;;24.20;56.60;;;;;;4934506;29;20511;-49
2021/07/24 01:35:48;;;;;;;14.77;12.83;;;24.10;56.90;;;;;;4933517;29;20276;-47
2021/07/24 01:38:14;;;;;;;13.80;12.40;;;24.10;57.00;;;;;;4934493;29;20295;-48
2021/07/24 01:40:40;;;;;;;15.23;13.43;;;24.20;56.90;;;;;;4933775;29;20429;-46
2021/07/24 01:43:05;;;;;;;13.30;11.87;;;24.20;56.80;;;;;;4934626;29;20440;-48
2021/07/24 01:45:35;;;;;;;14.03;12.27;;;24.10;57.00;;;;;;4942057;29;20191;-46
2021/07/24 01:48:03;;;;;;;13.67;12.37;;;24.00;57.00;;;;;;4951688;28;20230;-47
2021/07/24 01:53:14;;;;;;;14.90;13.50;;;24.20;56.50;;;;;;4953594;28;20505;-48
2021/07/24 01:55:44;;;;;;;15.00;12.10;;;24.30;56.50;;;;;;4952547;28;20440;-48
2021/07/24 01:58:14;;;;;;;14.10;12.37;;;24.30;56.20;;;;;;4953350;29;20558;-49
2021/07/24 02:00:43;;;;;;;14.33;12.50;;;24.40;56.20;;;;;;4956362;28;20506;-47
2021/07/24 02:03:13;;;;;;;13.80;12.40;;;24.30;56.00;;;;;;4957392;29;20954;-48
2021/07/24 02:05:41;;;;;;;13.93;12.07;;;24.40;56.00;;;;;;4956052;28;20506;-48
2021/07/24 02:08:10;;;;;;;14.70;13.23;;;24.40;56.20;;;;;;4956804;28;20574;-47
2021/07/24 02:10:36;;;;;;;13.27;11.87;;;24.40;56.10;;;;;;4955955;29;20514;-47
2021/07/24 02:13:02;;;;;;;15.27;12.43;;;24.40;56.00;;;;;;4955087;28;20542;-46
2021/07/24 02:15:28;;;;;;;12.10;10.87;;;24.40;56.00;;;;;;4955921;29;20424;-49
2021/07/24 02:17:54;;;;;;;15.47;13.23;;;24.40;55.80;;;;;;4956813;29;20558;-48
2021/07/24 02:20:23;;;;;;;13.50;12.20;;;24.40;55.70;;;;;;4949994;29;20260;-50
2021/07/24 02:22:49;;;;;;;15.30;13.70;;;24.40;55.80;;;;;;4937589;29;20208;-47
2021/07/24 02:25:14;;;;;;;15.70;14.10;;;24.50;55.70;;;;;;4937262;29;20444;-47
2021/07/24 02:27:47;;;;;;;20.13;13.00;;;24.50;55.70;;;;;;4936635;29;20646;-48
2021/07/24 02:30:13;;;;;;;15.00;12.47;;;24.50;55.60;;;;;;4937362;29;20207;-46
2021/07/24 02:32:40;;;;;;;14.83;13.30;;;24.30;55.90;;;;;;4936755;29;20439;-47
2021/07/24 02:35:06;;;;;;;16.93;13.63;;;24.20;57.10;;;;;;4936974;29;20436;-47
2021/07/24 02:37:31;;;;;;;13.57;12.17;;;24.10;56.70;;;;;;4936755;29;20791;-46
2021/07/24 02:39:57;;;;;;;13.87;12.57;;;24.10;56.60;;;;;;4935747;29;20221;-46
2021/07/24 02:42:22;;;;;;;14.63;13.07;;;24.10;56.70;;;;;;4936830;29;20205;-47
2021/07/24 02:44:48;;;;;;;16.50;12.27;;;24.10;56.50;;;;;;4940656;28;20556;-47
2021/07/24 02:47:13;;;;;;;16.00;13.43;;;24.10;56.50;;;;;;4955408;28;20192;-48
2021/07/24 02:49:39;;;;;;;14.80;12.50;;;24.20;56.50;;;;;;4956226;29;20227;-47
2021/07/24 02:52:05;;;;;;;14.33;12.80;;;24.20;56.30;;;;;;4955597;29;20657;-46
2021/07/24 02:54:31;;;;;;;15.20;13.60;;;24.20;56.30;;;;;;4956267;28;20204;-47
2021/07/24 02:56:56;;;;;;;14.30;12.97;;;24.20;56.30;;;;;;4955077;29;20419;-46
2021/07/24 02:59:22;;;;;;;14.10;12.40;;;24.20;56.20;;;;;;4955850;28;20200;-47
2021/07/24 03:01:48;;;;;;;14.23;12.73;;;24.10;56.40;;;;;;4955482;28;20242;-46
2021/07/24 03:04:13;;;;;;;16.00;13.67;;;24.00;56.40;;;;;;4956311;29;20203;-47
2021/07/24 03:06:39;;;;;;;13.63;12.23;;;24.00;56.60;;;;;;4953491;28;20206;-46
2021/07/24 03:09:06;;;;;;;17.33;13.43;;;24.00;56.70;;;;;;4955536;29;20354;-47
2021/07/24 03:11:33;;;;;;;17.17;14.13;;;23.90;56.90;;;;;;4954701;28;20542;-46
2021/07/24 03:14:00;;;;;;;15.77;13.63;;;23.90;57.10;;;;;;4955741;29;20782;-49
2021/07/24 03:16:25;;;;;;;12.70;11.40;;;23.90;56.90;;;;;;4954780;28;20522;-47
2021/07/24 03:18:51;;;;;;;13.50;12.20;;;23.90;56.80;;;;;;4955913;29;20633;-49
2021/07/24 03:21:18;;;;;;;12.70;11.37;;;23.90;56.70;;;;;;4940964;29;20702;-48
2021/07/24 03:23:44;;;;;;;13.90;12.47;;;23.90;56.70;;;;;;4936595;29;20440;-46
2021/07/24 03:26:09;;;;;;;14.77;12.90;;;23.80;56.90;;;;;;4935659;29;20587;-47
2021/07/24 03:28:35;;;;;;;15.43;12.70;;;23.60;57.30;;;;;;4936397;29;20235;-46
2021/07/24 03:31:01;;;;;;;13.90;12.43;;;23.60;57.60;;;;;;4935725;29;20806;-47
2021/07/24 03:33:27;;;;;;;13.07;11.73;;;23.50;57.90;;;;;;4934758;29;20275;-48
2021/07/24 03:35:52;;;;;;;13.90;12.30;;;23.50;58.10;;;;;;4935328;29;20195;-47
2021/07/24 03:38:19;;;;;;;14.00;12.60;;;23.30;58.50;;;;;;4936529;29;20288;-46
2021/07/24 03:40:45;;;;;;;16.70;14.13;;;23.20;58.60;;;;;;4935668;29;20567;-48
2021/07/24 03:43:11;;;;;;;15.70;12.90;;;23.20;58.60;;;;;;4936284;29;20436;-46
2021/07/24 03:45:36;;;;;;;14.50;12.60;;;23.10;59.00;;;;;;4944711;28;21028;-47
2021/07/24 03:48:03;;;;;;;15.17;13.00;;;23.20;58.90;;;;;;4937687;28;20310;-48
2021/07/24 03:50:29;;;;;;;15.67;14.03;;;23.30;58.50;;;;;;4954449;29;20282;-48
2021/07/24 03:52:55;;;;;;;16.53;13.10;;;23.30;58.30;;;;;;4955011;29;20510;-48
2021/07/24 03:55:21;;;;;;;13.77;12.13;;;23.10;58.70;;;;;;4954113;28;20440;-48
2021/07/24 03:57:49;;;;;;;13.50;11.83;;;22.90;59.10;;;;;;4954993;29;20207;-47
2021/07/24 04:00:14;;;;;;;15.87;12.70;;;23.00;59.00;;;;;;4953368;29;20275;-52
2021/07/24 04:02:42;;;;;;;19.00;13.43;;;23.20;58.70;;;;;;4954594;28;20514;-52
2021/07/24 04:05:08;;;;;;;13.93;12.63;;;23.40;58.80;;;;;;4954150;29;20607;-52
2021/07/24 04:07:35;;;;;;;12.60;11.33;;;23.50;57.70;;;;;;4954200;29;20908;-47
2021/07/24 04:10:01;;;;;;;14.10;12.03;;;23.70;57.40;;;;;;4954980;29;20431;-48
2021/07/24 04:12:28;;;;;;;15.80;12.47;;;23.70;57.10;;;;;;4954167;29;20443;-47
2021/07/24 04:14:54;;;;;;;13.73;12.33;;;23.70;57.30;;;;;;4954216;29;20203;-46
2021/07/24 04:17:19;;;;;;;13.90;12.50;;;23.80;57.20;;;;;;4953802;29;20463;-47
2021/07/24 04:19:45;;;;;;;14.17;12.77;;;23.80;57.00;;;;;;4952882;29;20711;-47
2021/07/24 04:22:11;;;;;;;15.90;13.80;;;23.90;57.00;;;;;;4933974;29;20197;-46
2021/07/24 04:24:37;;;;;;;13.87;12.57;;;24.00;57.10;;;;;;4935374;29;20201;-46
2021/07/24 04:27:05;;;;;;;15.40;11.80;;;24.00;57.10;;;;;;4932788;29;20247;-48
2021/07/24 04:29:30;;;;;;;14.00;12.63;;;24.10;57.20;;;;;;4934914;29;20268;-48
2021/07/24 04:31:56;;;;;;;15.00;13.43;;;24.10;56.90;;;;;;4935060;29;20436;-46
2021/07/24 04:34:21;;;;;;;18.57;13.47;;;24.10;57.00;;;;;;4935239;29;20624;-47
2021/07/24 04:36:47;;;;;;;14.47;12.87;;;24.00;57.20;;;;;;4934207;29;20669;-46
2021/07/24 04:39:13;;;;;;;13.93;12.47;;;24.10;57.00;;;;;;4935029;29;20720;-49
2021/07/24 04:41:38;;;;;;;14.67;13.20;;;24.20;57.00;;;;;;4934820;29;20248;-47
2021/07/24 04:44:04;;;;;;;13.80;12.40;;;24.20;57.00;;;;;;4935390;29;20224;-47
2021/07/24 04:46:29;;;;;;;14.37;12.97;;;24.30;57.20;;;;;;4950448;29;20188;-47
2021/07/24 04:48:55;;;;;;;14.07;12.50;;;24.30;57.50;;;;;;4953904;29;20286;-47
2021/07/24 04:51:21;;;;;;;15.97;12.97;;;24.30;57.50;;;;;;4953635;28;20195;-49
2021/07/24 04:53:48;;;;;;;13.63;12.33;;;24.30;57.50;;;;;;4952426;29;20207;-46
2021/07/24 04:56:14;;;;;;;17.57;12.83;;;24.30;57.50;;;;;;4953077;28;20199;-46
2021/07/24 04:58:40;;;;;;;14.23;12.33;;;24.30;57.40;;;;;;4953555;29;20432;-47
2021/07/24 05:01:06;;;;;;;14.03;12.63;;;24.40;57.30;;;;;;4953319;29;20447;-46
2021/07/24 05:03:33;;;;;;;13.17;11.87;;;24.40;57.10;;;;;;4954097;29;20211;-48
2021/07/24 05:06:00;;;;;;;17.57;12.80;;;24.30;57.10;;;;;;4952883;29;20246;-48
2021/07/24 05:08:26;;;;;;;14.77;13.27;;;24.10;57.60;;;;;;4953962;29;20488;-46
2021/07/24 05:10:51;;;;;;;14.00;12.60;;;24.10;57.70;;;;;;4953321;29;20982;-46
2021/07/24 05:13:17;;;;;;;13.90;12.40;;;24.00;57.90;;;;;;4953402;29;20231;-46
2021/07/24 05:15:42;;;;;;;13.30;11.93;;;24.10;57.70;;;;;;4953276;29;20207;-50
2021/07/24 05:18:08;;;;;;;14.70;11.77;;;24.10;57.50;;;;;;4952438;28;20239;-52
2021/07/24 05:20:34;;;;;;;13.43;12.00;;;24.20;57.20;;;;;;4945034;28;20204;-49
2021/07/24 05:22:59;;;;;;;18.00;12.40;;;24.30;57.00;;;;;;4934571;29;20200;-46
2021/07/24 05:25:25;;;;;;;16.20;13.90;;;24.30;56.90;;;;;;4933717;29;20656;-51
2021/07/24 05:27:51;;;;;;;14.03;12.63;;;24.40;56.70;;;;;;4934824;29;20235;-49
2021/07/24 05:30:17;;;;;;;16.33;12.27;;;24.50;56.70;;;;;;4934446;29;20296;-49
2021/07/24 05:32:42;;;;;;;16.23;12.10;;;24.50;56.60;;;;;;4934030;29;20208;-47
2021/07/24 05:35:09;;;;;;;13.13;11.73;;;24.40;56.60;;;;;;4936980;29;20196;-46
2021/07/24 05:37:35;;;;;;;14.47;12.93;;;24.40;56.70;;;;;;4937812;29;20259;-48
2021/07/24 05:40:00;;;;;;;14.83;12.00;;;24.40;56.60;;;;;;4938674;29;20441;-47
2021/07/24 05:42:26;;;;;;;12.00;10.90;;;24.50;56.90;;;;;;4937858;29;20640;-46
2021/07/24 05:44:52;;;;;;;16.63;13.43;;;24.60;57.00;;;;;;4940086;29;20184;-47
2021/07/24 05:47:17;;;;;;;15.20;13.27;;;24.60;56.70;;;;;;4956648;28;20199;-46
2021/07/24 05:49:43;;;;;;;14.87;12.20;;;24.70;56.90;;;;;;4957397;28;20231;-47
2021/07/24 05:52:09;;;;;;;13.63;12.30;;;24.70;56.90;;;;;;4956551;29;20267;-48
2021/07/24 05:54:38;;;;;;;13.80;12.47;;;24.80;57.00;;;;;;4957175;28;20644;-47
2021/07/24 05:57:05;;;;;;;18.57;11.63;;;24.80;57.20;;;;;;4956329;28;20785;-48
2021/07/24 05:59:31;;;;;;;15.10;12.67;;;24.90;57.60;;;;;;4957195;29;20455;-46
2021/07/24 06:01:57;;;;;;;14.23;12.50;;;24.90;57.60;;;;;;4956445;28;20506;-46
2021/07/24 06:04:23;;;;;;;16.80;12.40;;;25.00;57.60;;;;;;4956977;29;20431;-47
2021/07/24 06:06:49;;;;;;;17.53;13.30;;;25.00;57.60;;;;;;4955867;28;20486;-46
2021/07/24 06:09:14;;;;;;;18.07;14.00;;;25.10;57.70;;;;;;4957102;29;20676;-46
2021/07/24 06:11:40;;;;;;;16.40;12.93;;;25.20;57.60;;;;;;4954859;29;20266;-46
2021/07/24 06:14:05;;;;;;;15.20;13.60;;;25.20;57.00;;;;;;4956951;28;20203;-46
2021/07/24 06:16:31;;;;;;;14.60;12.80;;;25.20;56.40;;;;;;4955669;28;20200;-46
2021/07/24 06:19:00;;;;;;;20.63;13.23;;;25.20;56.00;;;;;;4956930;29;20715;-49
2021/07/24 06:21:26;;;;;;;14.10;12.60;;;25.10;56.00;;;;;;4941101;28;20243;-48
2021/07/24 06:23:51;;;;;;;13.30;11.60;;;25.00;56.60;;;;;;4937780;29;20475;-48
2021/07/24 06:26:17;;;;;;;14.00;12.60;;;25.00;56.60;;;;;;4936415;29;20229;-46
2021/07/24 06:28:42;;;;;;;14.87;13.37;;;25.10;56.70;;;;;;4936359;29;20235;-46
2021/07/24 06:31:08;;;;;;;16.83;13.00;;;25.00;57.00;;;;;;4936716;29;20249;-47
2021/07/24 06:33:34;;;;;;;16.10;12.87;;;24.90;57.50;;;;;;4937594;29;20193;-47
2021/07/24 06:36:00;;;;;;;13.10;11.87;;;25.00;57.40;;;;;;4936399;29;20193;-47
2021/07/24 06:38:26;;;;;;;13.67;12.37;;;25.10;57.10;;;;;;4935995;29;20244;-46
2021/07/24 06:40:53;;;;;;;16.87;13.30;;;25.20;57.00;;;;;;4936804;29;20283;-50
2021/07/24 06:43:18;;;;;;;14.90;12.87;;;25.20;57.10;;;;;;4937241;29;20420;-47
2021/07/24 06:45:44;;;;;;;25.47;15.50;;;25.30;57.20;;;;;;4945675;28;21003;-46
2021/07/24 06:48:09;;;;;;;16.50;14.47;;;25.40;58.50;;;;;;4955925;28;20220;-47
2021/07/24 06:50:35;;;;;;;16.43;14.73;;;25.40;59.40;;;;;;4955757;29;20969;-52
2021/07/24 06:53:01;;;;;;;17.33;15.60;;;25.40;59.90;;;;;;4956333;28;20652;-48
2021/07/24 06:55:27;;;;;;;17.40;15.57;;;25.40;60.20;;;;;;4955045;29;20200;-48
2021/07/24 06:57:52;;;;;;;16.47;14.87;;;25.50;61.20;;;;;;4956109;29;20614;-48
2021/07/24 07:00:18;;;;;;;21.03;15.03;;;25.60;62.10;;;;;;4955911;28;20432;-47
2021/07/24 07:02:44;;;;;;;17.30;14.60;;;25.70;62.90;;;;;;4956051;29;20218;-46
2021/07/24 07:05:10;;;;;;;19.83;14.53;;;25.60;62.40;;;;;;4953792;29;20542;-49
2021/07/24 07:07:36;;;;;;;16.93;15.13;;;25.60;62.80;;;;;;4955147;29;20243;-47
2021/07/24 07:10:04;;;;;;;15.40;13.80;;;25.60;62.40;;;;;;4956285;29;20471;-48
2021/07/24 07:12:29;;;;;;;15.20;13.83;;;25.60;61.30;;;;;;4955233;28;20431;-49
2021/07/24 07:14:55;;;;;;;15.03;13.53;;;25.60;60.10;;;;;;4955251;28;20990;-48
2021/07/24 07:17:21;;;;;;;17.00;14.43;;;25.80;60.10;;;;;;4955112;28;20295;-47
2021/07/24 07:19:50;;;;;;;14.60;13.20;;;25.90;60.40;;;;;;4953931;28;20286;-47
2021/07/24 07:22:16;;;;;;;14.33;12.83;;;26.10;60.50;;;;;;4935749;29;20441;-47
2021/07/24 07:24:42;;;;;;;16.87;14.90;;;26.20;60.40;;;;;;4936135;29;20428;-48
2021/07/24 07:27:07;;;;;;;16.47;14.87;;;26.30;60.40;;;;;;4935864;29;20198;-47
2021/07/24 07:29:33;;;;;;;15.30;14.00;;;26.30;60.90;;;;;;4936338;29;20232;-47
2021/07/24 07:31:58;;;;;;;14.77;13.37;;;26.30;60.00;;;;;;4934351;29;20197;-47
2021/07/24 07:34:24;;;;;;;13.23;11.90;;;26.30;60.20;;;;;;4936344;29;20656;-47
2021/07/24 07:36:49;;;;;;;14.17;12.70;;;26.40;60.20;;;;;;4935478;29;20189;-46
2021/07/24 07:39:15;;;;;;;14.90;13.40;;;26.40;58.90;;;;;;4936221;29;20604;-49
2021/07/24 07:41:41;;;;;;;15.17;13.13;;;26.40;58.60;;;;;;4935741;29;20207;-48
2021/07/24 07:44:07;;;;;;;17.77;13.60;;;26.50;59.30;;;;;;4936255;29;20259;-50
2021/07/24 07:46:32;;;;;;;14.07;12.73;;;26.50;58.20;;;;;;4952108;29;20207;-49
2021/07/24 07:48:59;;;;;;;13.67;12.27;;;26.30;58.50;;;;;;4954999;28;20223;-47
2021/07/24 07:51:24;;;;;;;15.80;13.97;;;26.20;59.30;;;;;;4954821;29;20200;-49
2021/07/24 07:53:50;;;;;;;14.43;12.93;;;26.10;58.70;;;;;;4954930;28;20435;-51
2021/07/24 07:56:15;;;;;;;14.27;12.87;;;25.90;59.90;;;;;;4954156;28;20188;-48
2021/07/24 07:58:41;;;;;;;18.43;14.23;;;25.50;60.80;;;;;;4953385;28;20208;-48
2021/07/24 08:01:11;;;;;;;16.23;14.63;;;25.40;61.50;;;;;;4954353;28;20204;-47
2021/07/24 08:03:37;;;;;;;23.00;15.97;;;25.50;61.80;;;;;;4954678;29;20280;-51
2021/07/24 08:06:02;;;;;;;17.73;15.40;;;25.60;62.00;;;;;;4953863;28;20803;-52
2021/07/24 08:08:28;;;;;;;16.03;14.43;;;25.70;61.60;;;;;;4954747;29;20491;-48
2021/07/24 08:10:53;;;;;;;18.83;13.93;;;25.80;61.00;;;;;;4954303;29;20195;-48
2021/07/24 08:13:19;;;;;;;14.53;13.00;;;25.90;60.30;;;;;;4954343;29;20192;-47
2021/07/24 08:15:47;;;;;;;16.17;14.53;;;26.00;60.00;;;;;;4953766;29;20681;-51
2021/07/24 08:18:14;;;;;;;15.00;13.50;;;26.10;59.10;;;;;;4954307;29;20275;-46
2021/07/24 08:20:40;;;;;;;15.20;13.70;;;26.00;59.20;;;;;;4945256;28;20463;-52
2021/07/24 08:23:08;;;;;;;16.13;14.43;;;26.10;59.40;;;;;;4934847;29;20925;-52
2021/07/24 08:25:34;;;;;;;16.47;14.60;;;26.00;59.30;;;;;;4933297;29;20441;-47
2021/07/24 08:28:05;;;;;;;16.70;14.93;;;25.90;59.50;;;;;;4935238;29;20498;-49
2021/07/24 08:30:31;;;;;;;16.57;14.87;;;26.00;58.90;;;;;;4934808;29;20520;-48
2021/07/24 08:32:58;;;;;;;18.30;16.47;;;25.90;59.60;;;;;;4935217;29;20428;-46
2021/07/24 08:35:24;;;;;;;19.23;16.40;;;25.80;59.40;;;;;;4934333;29;20441;-51
2021/07/24 08:37:50;;;;;;;19.83;15.57;;;25.40;60.50;;;;;;4935275;29;20432;-46
2021/07/24 08:40:16;;;;;;;15.90;14.30;;;25.30;63.10;;;;;;4935327;29;20432;-51
2021/07/24 08:42:42;;;;;;;16.57;14.40;;;25.30;64.40;;;;;;4934625;29;20615;-49
2021/07/24 08:45:09;;;;;;;18.43;14.07;;;25.20;62.90;;;;;;4940556;29;20424;-47
2021/07/24 08:47:36;;;;;;;15.07;13.67;;;25.20;63.50;;;;;;4953582;29;20482;-47
2021/07/24 08:50:04;;;;;;;15.27;13.73;;;25.30;63.40;;;;;;4952384;29;20509;-50
2021/07/24 08:52:31;;;;;;;15.90;14.30;;;25.50;62.80;;;;;;4953285;28;20427;-51
2021/07/24 08:54:58;;;;;;;15.60;14.00;;;25.60;61.90;;;;;;4953724;29;20423;-51
2021/07/24 08:57:28;;;;;;;17.00;15.30;;;25.80;62.00;;;;;;4953492;29;20428;-48
2021/07/24 08:59:56;;;;;;;16.47;14.80;;;25.90;62.10;;;;;;4953841;29;21067;-47
2021/07/24 09:02:29;;;;;;;18.37;14.70;;;25.80;61.70;;;;;;4953123;29;20915;-47
2021/07/24 09:04:59;;;;;;;20.67;15.03;;;25.70;61.80;;;;;;4953519;29;20428;-47
2021/07/24 09:07:28;;;;;;;18.07;14.33;;;25.80;62.20;;;;;;4953413;28;20439;-46
2021/07/24 09:09:59;;;;;;;14.60;13.10;;;25.90;60.90;;;;;;4953234;28;20491;-48
2021/07/24 09:12:25;;;;;;;15.80;14.20;;;26.00;59.80;;;;;;4953074;29;20424;-50
2021/07/24 09:14:51;;;;;;;14.90;13.40;;;25.90;59.80;;;;;;4953382;29;20431;-46
2021/07/24 09:17:20;;;;;;;14.50;13.17;;;26.00;59.10;;;;;;4951507;29;20466;-52
2021/07/24 09:19:45;;;;;;;14.13;12.73;;;25.90;60.00;;;;;;4951718;28;20200;-49
2021/07/24 09:22:25;;;;;;;13.27;12.03;;;26.20;59.20;;;;;;4934286;29;20425;-50
2021/07/24 09:25:13;;;;;;;13.03;11.70;;;26.40;58.50;;;;;;4934211;29;20204;-52
2021/07/24 09:27:41;;;;;;;13.47;12.13;;;26.70;57.00;;;;;;4933892;29;20551;-52
2021/07/24 09:30:11;;;;;;;12.70;11.50;;;26.80;55.70;;;;;;4934471;29;20421;-47
2021/07/24 09:32:36;;;;;;;13.60;12.20;;;26.80;56.60;;;;;;4933391;29;20448;-48
2021/07/24 09:35:02;;;;;;;11.90;10.70;;;27.30;55.60;;;;;;4934093;29;20440;-50
2021/07/24 09:37:30;;;;;;;14.30;12.47;;;27.60;55.10;;;;;;4933976;29;20223;-51
2021/07/24 09:40:21;;;;;;;13.60;11.37;;;27.90;54.70;;;;;;4934600;29;20207;-47
2021/07/24 09:42:47;;;;;;;12.77;11.40;;;28.60;53.20;;;;;;4932539;29;20444;-49
2021/07/24 09:45:13;;;;;;;12.40;11.30;;;28.90;52.20;;;;;;4940228;29;20478;-47
2021/07/24 09:47:38;;;;;;;12.37;11.27;;;29.20;50.70;;;;;;4953202;28;20191;-50
2021/07/24 09:50:15;;;;;;;14.27;11.40;;;29.40;49.20;;;;;;4953347;28;20231;-51
2021/07/24 09:52:51;;;;;;;12.17;10.97;;;29.70;47.90;;;;;;4952744;28;20203;-51
2021/07/24 09:55:18;;;;;;;11.90;10.70;;;29.60;48.00;;;;;;4953069;29;20479;-48
2021/07/24 09:57:46;;;;;;;12.50;11.13;;;29.80;49.10;;;;;;4953369;29;20432;-48
2021/07/24 10:00:29;;;;;;;11.53;10.33;;;30.20;47.10;;;;;;4953457;29;21031;-49
2021/07/24 10:03:06;;;;;;;12.00;10.80;;;30.70;46.80;;;;;;4953123;28;20450;-50
2021/07/24 10:05:37;;;;;;;12.23;10.90;;;30.80;47.00;;;;;;4952225;28;20431;-48
2021/07/24 10:08:05;;;;;;;11.83;10.63;;;30.90;46.70;;;;;;4953265;28;20494;-52
2021/07/24 10:10:34;;;;;;;13.67;12.37;;;30.80;46.00;;;;;;4951255;29;20640;-49
2021/07/24 10:13:01;;;;;;;12.30;11.17;;;30.80;45.10;;;;;;4953384;29;20436;-50
2021/07/24 10:15:32;;;;;;;12.50;11.20;;;30.70;43.10;;;;;;4952577;29;20485;-47
2021/07/24 10:17:59;;;;;;;12.40;9.93;;;30.60;43.00;;;;;;4952851;28;20548;-50
2021/07/24 10:20:25;;;;;;;13.73;11.37;;;30.00;43.70;;;;;;4947536;28;20511;-50
2021/07/24 10:22:51;;;;;;;12.30;11.20;;;30.00;44.30;;;;;;4937689;29;20903;-48
2021/07/24 10:25:21;;;;;;;12.97;11.67;;;30.30;44.00;;;;;;4937360;29;20219;-51
2021/07/24 10:27:47;;;;;;;11.93;10.83;;;30.50;44.00;;;;;;4937275;29;20287;-52
2021/07/24 10:30:14;;;;;;;11.67;10.57;;;30.70;43.60;;;;;;4937448;29;20475;-48
2021/07/24 10:32:42;;;;;;;12.00;10.80;;;30.80;43.60;;;;;;4936715;29;20440;-52
2021/07/24 10:35:09;;;;;;;12.57;11.37;;;31.10;44.10;;;;;;4937040;29;20444;-50
2021/07/24 10:37:41;;;;;;;13.03;11.20;;;31.40;43.50;;;;;;4935299;29;20444;-53
2021/07/24 10:40:32;;;;;;;14.33;10.50;;;31.60;42.40;;;;;;4937144;29;20440;-53
2021/07/24 10:42:58;;;;;;;11.50;10.40;;;31.60;42.60;;;;;;4937298;29;20495;-53
2021/07/24 10:45:33;;;;;;;16.17;10.73;;;30.90;43.20;;;;;;4944362;28;20420;-51
2021/07/24 10:48:13;;;;;;;11.93;10.73;;;30.90;43.60;;;;;;4956087;29;20266;-50
2021/07/24 10:50:55;;;;;;;14.20;12.30;;;30.90;43.50;;;;;;4955536;29;20439;-49
2021/07/24 10:53:21;;;;;;;12.60;11.30;;;31.10;44.20;;;;;;4956420;29;20447;-52
2021/07/24 10:55:51;;;;;;;13.33;12.00;;;31.40;44.50;;;;;;4954875;29;20479;-52
2021/07/24 10:58:25;;;;;;;15.13;10.93;;;31.70;43.40;;;;;;4956157;29;20538;-50
2021/07/24 11:00:53;;;;;;;13.27;11.90;;;31.70;43.00;;;;;;4955650;29;20494;-49
2021/07/24 11:03:34;;;;;;;12.13;10.13;;;31.80;43.80;;;;;;4954433;29;20513;-50
2021/07/24 11:06:01;;;;;;;13.40;12.10;;;31.70;42.30;;;;;;4954698;29;20744;-49
2021/07/24 11:09:02;;;;;;;11.50;10.40;;;31.80;42.20;;;;;;4955825;29;20530;-48
2021/07/24 11:11:47;;;;;;;15.53;11.50;;;32.00;42.00;;;;;;4955394;28;20852;-51
2021/07/24 11:14:38;;;;;;;13.70;11.00;;;31.70;42.20;;;;;;4955610;29;20428;-48
2021/07/24 11:17:04;;;;;;;12.87;11.47;;;31.70;42.30;;;;;;4954726;28;20466;-49
2021/07/24 11:19:29;;;;;;;13.03;11.70;;;32.00;42.70;;;;;;4955134;28;20435;-52
2021/07/24 11:22:11;;;;;;;11.53;10.23;;;32.40;42.50;;;;;;4936293;29;20192;-54
2021/07/24 11:24:38;;;;;;;13.63;12.33;;;32.80;40.70;;;;;;4935918;29;20200;-53
2021/07/24 11:27:04;;;;;;;13.53;12.23;;;32.90;40.40;;;;;;4936122;29;20421;-53
2021/07/24 11:29:29;;;;;;;15.23;12.37;;;32.60;40.50;;;;;;4934813;29;20932;-50
2021/07/24 11:31:59;;;;;;;13.93;11.40;;;33.00;41.10;;;;;;4935547;29;20435;-53
2021/07/24 11:34:29;;;;;;;11.63;10.30;;;33.50;41.20;;;;;;4935953;29;20653;-52
2021/07/24 11:36:54;;;;;;;12.43;11.23;;;33.80;39.70;;;;;;4935718;29;20437;-53
2021/07/24 11:39:28;;;;;;;11.50;10.43;;;33.90;39.00;;;;;;4936314;29;20444;-51
2021/07/24 11:41:55;;;;;;;12.50;10.30;;;33.70;38.40;;;;;;4935909;29;20204;-48
2021/07/24 11:44:32;;;;;;;11.83;10.70;;;33.40;38.70;;;;;;4935568;29;20941;-53
2021/07/24 11:47:04;;;;;;;12.03;10.77;;;33.50;39.40;;;;;;4947523;29;21014;-52
2021/07/24 11:49:31;;;;;;;11.33;10.23;;;33.30;39.40;;;;;;4942479;29;20488;-48
2021/07/24 11:51:57;;;;;;;12.40;10.80;;;33.30;39.40;;;;;;4954298;28;20439;-52
2021/07/24 11:54:34;;;;;;;11.60;10.60;;;33.00;39.80;;;;;;4954700;29;20463;-49
2021/07/24 11:57:01;;;;;;;15.80;11.07;;;33.00;40.10;;;;;;4952781;29;20888;-53
2021/07/24 11:59:28;;;;;;;11.77;10.67;;;33.00;40.20;;;;;;4955238;28;20424;-51
2021/07/24 12:01:55;;;;;;;13.23;12.03;;;33.10;40.10;;;;;;4954473;29;20442;-52
2021/07/24 12:04:21;;;;;;;10.73;9.73;;;33.10;40.20;;;;;;4954467;29;20450;-53
2021/07/24 12:06:58;;;;;;;12.17;10.90;;;33.10;40.20;;;;;;4954291;28;20833;-53
2021/07/24 12:09:25;;;;;;;11.23;10.03;;;33.10;41.00;;;;;;4954830;29;20239;-53
2021/07/24 12:11:59;;;;;;;11.03;10.07;;;33.20;40.50;;;;;;4954217;28;20464;-52
2021/07/24 12:14:28;;;;;;;11.13;10.10;;;33.20;40.50;;;;;;4954200;29;20447;-49
2021/07/24 12:17:04;;;;;;;13.23;9.43;;;33.30;40.30;;;;;;4953827;29;20427;-48
2021/07/24 12:19:37;;;;;;;9.43;8.47;;;33.30;40.50;;;;;;4954821;29;20514;-53
2021/07/24 12:22:24;;;;;;;9.63;7.70;;;33.40;40.70;;;;;;4945596;29;20456;-53
2021/07/24 12:24:51;;;;;;;8.23;7.40;;;33.30;39.30;;;;;;4934954;29;20436;-53
2021/07/24 12:27:20;;;;;;;9.40;7.60;;;33.20;40.00;;;;;;4935047;29;20428;-53
2021/07/24 12:29:58;;;;;;;8.30;7.50;;;33.30;39.10;;;;;;4935357;29;20495;-52
2021/07/24 12:32:40;;;;;;;9.47;8.10;;;33.40;37.90;;;;;;4934619;29;21367;-53
2021/07/24 12:35:16;;;;;;;9.80;6.93;;;33.50;37.70;;;;;;4934553;29;20944;-52